sensor_id;sensor_type;location;lat;lon;timestamp;pressure;altitude;pressure_sealevel;temperature;humidity
24620;BME280;12763;55.802;37.404;2024-02-21T00:00:56;100297.66;;;-3.44;100.00
24620;BME280;12763;55.802;37.404;2024-02-21T00:03:22;100302.31;;;-3.59;100.00
24620;BME280;12763;55.802;37.404;2024-02-21T00:05:48;100295.19;;;-3.47;100.00
24620;BME280;12763;55.802;37.404;2024-02-21T00:08:14;100296.34;;;-3.38;100.00
24620;BME280;12763;55.802;37.404;2024-02-21T00:10:40;100296.47;;;-3.40;100.00
24620;BME280;12763;55.802;37.404;2024-02-21T00:13:05;100294.81;;;-3.30;100.00
24620;BME280;12763;55.802;37.404;2024-02-21T00:15:31;100292.97;;;-3.29;100.00
24620;BME280;12763;55.802;37.404;2024-02-21T00:17:57;100291.47;;;-3.33;100.00
24620;BME280;12763;55.802;37.404;2024-02-21T00:20:23;100295.22;;;-3.60;100.00
24620;BME280;12763;55.802;37.404;2024-02-21T00:22:51;100288.38;;;-3.40;100.00
24620;BME280;12763;55.802;37.404;2024-02-21T00:25:17;100285.34;;;-3.35;100.00
24620;BME280;12763;55.802;37.404;2024-02-21T00:27:44;100287.59;;;-3.42;100.00
24620;BME280;12763;55.802;37.404;2024-02-21T00:30:10;100282.69;;;-3.48;100.00
24620;BME280;12763;55.802;37.404;2024-02-21T00:32:36;100281.97;;;-3.39;100.00
24620;BME280;12763;55.802;37.404;2024-02-21T00:35:02;100288.25;;;-3.38;100.00
24620;BME280;12763;55.802;37.404;2024-02-21T00:37:31;100284.38;;;-3.47;100.00
24620;BME280;12763;55.802;37.404;2024-02-21T00:39:57;100271.25;;;-3.64;100.00
24620;BME280;12763;55.802;37.404;2024-02-21T00:42:23;100265.84;;;-3.51;100.00
24620;BME280;12763;55.802;37.404;2024-02-21T00:44:49;100268.09;;;-3.45;100.00
24620;BME280;12763;55.802;37.404;2024-02-21T00:47:15;100274.97;;;-3.41;100.00
24620;BME280;12763;55.802;37.404;2024-02-21T00:49:41;100260.97;;;-3.46;100.00
24620;BME280;12763;55.802;37.404;2024-02-21T00:52:07;100263.34;;;-3.18;100.00
24620;BME280;12763;55.802;37.404;2024-02-21T00:54:33;100251.63;;;-3.30;100.00
24620;BME280;12763;55.802;37.404;2024-02-21T00:56:58;100248.56;;;-3.25;100.00
24620;BME280;12763;55.802;37.404;2024-02-21T00:59:24;100251.84;;;-3.09;100.00
24620;BME280;12763;55.802;37.404;2024-02-21T01:01:50;100248.91;;;-3.06;100.00
24620;BME280;12763;55.802;37.404;2024-02-21T01:04:16;100251.22;;;-3.13;100.00
24620;BME280;12763;55.802;37.404;2024-02-21T01:06:42;100243.97;;;-2.88;100.00
24620;BME280;12763;55.802;37.404;2024-02-21T01:09:11;100237.88;;;-3.03;100.00
24620;BME280;12763;55.802;37.404;2024-02-21T01:11:37;100239.00;;;-3.29;100.00
24620;BME280;12763;55.802;37.404;2024-02-21T01:14:03;100233.94;;;-3.10;100.00
24620;BME280;12763;55.802;37.404;2024-02-21T01:16:29;100227.59;;;-2.98;100.00
24620;BME280;12763;55.802;37.404;2024-02-21T01:18:55;100228.22;;;-2.94;100.00
24620;BME280;12763;55.802;37.404;2024-02-21T01:21:21;100236.78;;;-2.77;100.00
24620;BME280;12763;55.802;37.404;2024-02-21T01:23:47;100231.13;;;-2.74;100.00
24620;BME280;12763;55.802;37.404;2024-02-21T01:26:13;100230.66;;;-2.57;100.00
24620;BME280;12763;55.802;37.404;2024-02-21T01:28:41;100233.38;;;-2.57;99.20
24620;BME280;12763;55.802;37.404;2024-02-21T01:31:07;100227.66;;;-2.76;99.70
24620;BME280;12763;55.802;37.404;2024-02-21T01:33:33;100220.72;;;-2.56;99.27
24620;BME280;12763;55.802;37.404;2024-02-21T01:36:04;100218.66;;;-2.53;99.34
24620;BME280;12763;55.802;37.404;2024-02-21T01:38:33;100218.72;;;-2.76;99.54
24620;BME280;12763;55.802;37.404;2024-02-21T01:41:00;100218.47;;;-2.73;99.76
24620;BME280;12763;55.802;37.404;2024-02-21T01:43:26;100215.19;;;-2.66;98.68
24620;BME280;12763;55.802;37.404;2024-02-21T01:45:53;100218.41;;;-2.61;99.67
24620;BME280;12763;55.802;37.404;2024-02-21T01:48:21;100213.13;;;-2.51;98.85
24620;BME280;12763;55.802;37.404;2024-02-21T01:50:49;100208.97;;;-2.44;99.24
24620;BME280;12763;55.802;37.404;2024-02-21T01:53:20;100209.72;;;-2.31;98.98
24620;BME280;12763;55.802;37.404;2024-02-21T01:55:47;100203.88;;;-2.71;98.45
24620;BME280;12763;55.802;37.404;2024-02-21T01:58:17;100199.50;;;-2.50;99.10
24620;BME280;12763;55.802;37.404;2024-02-21T02:00:45;100207.13;;;-2.44;99.04
24620;BME280;12763;55.802;37.404;2024-02-21T02:03:13;100191.50;;;-2.40;98.47
24620;BME280;12763;55.802;37.404;2024-02-21T02:05:44;100198.72;;;-2.74;98.96
24620;BME280;12763;55.802;37.404;2024-02-21T02:08:10;100196.75;;;-2.72;100.00
24620;BME280;12763;55.802;37.404;2024-02-21T02:10:37;100199.34;;;-2.59;99.72
24620;BME280;12763;55.802;37.404;2024-02-21T02:13:03;100187.72;;;-2.49;100.00
24620;BME280;12763;55.802;37.404;2024-02-21T02:15:44;100186.97;;;-2.51;99.99
24620;BME280;12763;55.802;37.404;2024-02-21T02:18:11;100193.81;;;-2.69;100.00
24620;BME280;12763;55.802;37.404;2024-02-21T02:20:38;100202.75;;;-2.79;100.00
24620;BME280;12763;55.802;37.404;2024-02-21T02:25:48;100193.22;;;-2.61;100.00
24620;BME280;12763;55.802;37.404;2024-02-21T02:28:18;100200.94;;;-2.57;100.00
24620;BME280;12763;55.802;37.404;2024-02-21T02:30:45;100205.63;;;-2.48;100.00
24620;BME280;12763;55.802;37.404;2024-02-21T02:33:11;100201.84;;;-2.91;100.00
24620;BME280;12763;55.802;37.404;2024-02-21T02:35:37;100190.91;;;-2.44;100.00
24620;BME280;12763;55.802;37.404;2024-02-21T02:38:03;100193.22;;;-2.61;100.00
24620;BME280;12763;55.802;37.404;2024-02-21T02:40:30;100192.78;;;-2.79;100.00
24620;BME280;12763;55.802;37.404;2024-02-21T02:42:56;100192.47;;;-2.63;100.00
24620;BME280;12763;55.802;37.404;2024-02-21T02:45:23;100188.78;;;-2.62;100.00
24620;BME280;12763;55.802;37.404;2024-02-21T02:47:53;100188.09;;;-2.99;100.00
24620;BME280;12763;55.802;37.404;2024-02-21T02:50:26;100190.97;;;-2.67;100.00
24620;BME280;12763;55.802;37.404;2024-02-21T02:52:53;100187.41;;;-2.68;100.00
24620;BME280;12763;55.802;37.404;2024-02-21T02:55:19;100192.53;;;-2.87;100.00
24620;BME280;12763;55.802;37.404;2024-02-21T02:57:46;100197.09;;;-2.87;100.00
24620;BME280;12763;55.802;37.404;2024-02-21T03:00:12;100192.84;;;-2.57;100.00
24620;BME280;12763;55.802;37.404;2024-02-21T03:02:40;100195.97;;;-2.28;100.00
24620;BME280;12763;55.802;37.404;2024-02-21T03:05:16;100196.44;;;-2.45;100.00
24620;BME280;12763;55.802;37.404;2024-02-21T03:07:43;100190.41;;;-2.60;100.00
24620;BME280;12763;55.802;37.404;2024-02-21T03:10:10;100187.59;;;-2.36;100.00
24620;BME280;12763;55.802;37.404;2024-02-21T03:12:36;100191.16;;;-2.47;100.00
24620;BME280;12763;55.802;37.404;2024-02-21T03:15:03;100196.06;;;-2.52;100.00
24620;BME280;12763;55.802;37.404;2024-02-21T03:17:32;100185.84;;;-2.59;100.00
24620;BME280;12763;55.802;37.404;2024-02-21T03:20:02;100184.41;;;-2.41;100.00
24620;BME280;12763;55.802;37.404;2024-02-21T03:22:31;100181.81;;;-2.31;100.00
24620;BME280;12763;55.802;37.404;2024-02-21T03:24:58;100183.94;;;-2.35;100.00
24620;BME280;12763;55.802;37.404;2024-02-21T03:27:24;100187.84;;;-2.39;100.00
24620;BME280;12763;55.802;37.404;2024-02-21T03:29:50;100191.41;;;-2.39;100.00
24620;BME280;12763;55.802;37.404;2024-02-21T03:32:16;100181.81;;;-2.20;100.00
24620;BME280;12763;55.802;37.404;2024-02-21T03:34:41;100182.94;;;-2.12;100.00
24620;BME280;12763;55.802;37.404;2024-02-21T03:37:07;100181.34;;;-2.03;100.00
24620;BME280;12763;55.802;37.404;2024-02-21T03:39:33;100187.00;;;-2.17;100.00
24620;BME280;12763;55.802;37.404;2024-02-21T03:41:59;100174.72;;;-1.99;100.00
24620;BME280;12763;55.802;37.404;2024-02-21T03:44:31;100174.94;;;-2.02;100.00
24620;BME280;12763;55.802;37.404;2024-02-21T03:46:58;100169.53;;;-2.02;100.00
24620;BME280;12763;55.802;37.404;2024-02-21T03:49:24;100181.56;;;-1.95;100.00
24620;BME280;12763;55.802;37.404;2024-02-21T03:51:50;100180.94;;;-1.99;100.00
24620;BME280;12763;55.802;37.404;2024-02-21T03:54:15;100176.41;;;-1.98;100.00
24620;BME280;12763;55.802;37.404;2024-02-21T03:56:41;100173.72;;;-2.09;100.00
24620;BME280;12763;55.802;37.404;2024-02-21T03:59:07;100174.97;;;-2.13;100.00
24620;BME280;12763;55.802;37.404;2024-02-21T04:01:36;100179.88;;;-1.96;100.00
24620;BME280;12763;55.802;37.404;2024-02-21T04:04:02;100186.97;;;-1.95;100.00
24620;BME280;12763;55.802;37.404;2024-02-21T04:06:28;100183.38;;;-1.73;100.00
24620;BME280;12763;55.802;37.404;2024-02-21T04:08:54;100181.28;;;-1.59;100.00
24620;BME280;12763;55.802;37.404;2024-02-21T04:11:21;100179.41;;;-1.47;100.00
24620;BME280;12763;55.802;37.404;2024-02-21T04:13:47;100189.34;;;-1.37;99.66
24620;BME280;12763;55.802;37.404;2024-02-21T04:16:16;100180.63;;;-1.08;99.13
24620;BME280;12763;55.802;37.404;2024-02-21T04:18:42;100196.53;;;-0.83;98.04
24620;BME280;12763;55.802;37.404;2024-02-21T04:21:09;100198.69;;;-0.77;95.75
24620;BME280;12763;55.802;37.404;2024-02-21T04:23:35;100189.69;;;-0.98;94.84
24620;BME280;12763;55.802;37.404;2024-02-21T04:26:01;100190.97;;;-1.02;95.02
24620;BME280;12763;55.802;37.404;2024-02-21T04:28:27;100188.91;;;-0.89;95.23
24620;BME280;12763;55.802;37.404;2024-02-21T04:30:53;100185.19;;;-0.88;94.28
24620;BME280;12763;55.802;37.404;2024-02-21T04:33:19;100185.31;;;-1.10;93.64
24620;BME280;12763;55.802;37.404;2024-02-21T04:35:45;100184.16;;;-1.29;94.54
24620;BME280;12763;55.802;37.404;2024-02-21T04:38:11;100187.88;;;-1.41;95.40
24620;BME280;12763;55.802;37.404;2024-02-21T04:40:37;100191.59;;;-1.42;95.42
24620;BME280;12763;55.802;37.404;2024-02-21T04:43:03;100182.47;;;-1.52;96.28
24620;BME280;12763;55.802;37.404;2024-02-21T04:45:29;100190.69;;;-1.74;97.75
24620;BME280;12763;55.802;37.404;2024-02-21T04:47:55;100193.00;;;-1.69;97.85
24620;BME280;12763;55.802;37.404;2024-02-21T04:50:20;100187.22;;;-1.98;99.94
24620;BME280;12763;55.802;37.404;2024-02-21T04:52:46;100184.72;;;-1.68;98.90
24620;BME280;12763;55.802;37.404;2024-02-21T04:55:12;100184.97;;;-1.60;98.73
24620;BME280;12763;55.802;37.404;2024-02-21T04:57:38;100191.59;;;-1.42;99.56
24620;BME280;12763;55.802;37.404;2024-02-21T05:00:06;100185.03;;;-1.07;98.71
24620;BME280;12763;55.802;37.404;2024-02-21T05:02:32;100191.63;;;-0.89;97.12
24620;BME280;12763;55.802;37.404;2024-02-21T05:04:58;100187.72;;;-0.96;96.08
24620;BME280;12763;55.802;37.404;2024-02-21T05:07:23;100191.56;;;-1.31;96.61
24620;BME280;12763;55.802;37.404;2024-02-21T05:09:49;100195.44;;;-1.24;96.89
24620;BME280;12763;55.802;37.404;2024-02-21T05:12:15;100191.03;;;-1.25;97.24
24620;BME280;12763;55.802;37.404;2024-02-21T05:14:41;100185.69;;;-1.15;97.94
24620;BME280;12763;55.802;37.404;2024-02-21T05:17:07;100193.81;;;-1.15;98.24
24620;BME280;12763;55.802;37.404;2024-02-21T05:19:33;100196.53;;;-0.83;96.38
24620;BME280;12763;55.802;37.404;2024-02-21T05:22:00;100196.41;;;-1.13;96.12
24620;BME280;12763;55.802;37.404;2024-02-21T05:24:26;100195.84;;;-0.96;95.98
24620;BME280;12763;55.802;37.404;2024-02-21T05:26:53;100203.28;;;-0.78;95.72
24620;BME280;12763;55.802;37.404;2024-02-21T05:29:19;100199.28;;;-0.94;95.32
24620;BME280;12763;55.802;37.404;2024-02-21T05:34:17;100195.22;;;-1.32;96.41
24620;BME280;12763;55.802;37.404;2024-02-21T05:36:43;100188.09;;;-1.22;96.88
24620;BME280;12763;55.802;37.404;2024-02-21T05:41:55;100192.44;;;-1.09;96.48
24620;BME280;12763;55.802;37.404;2024-02-21T05:44:21;100189.69;;;-0.98;96.28
24620;BME280;12763;55.802;37.404;2024-02-21T05:46:47;100190.41;;;-0.96;96.02
24620;BME280;12763;55.802;37.404;2024-02-21T05:49:32;100190.97;;;-0.82;95.42
24620;BME280;12763;55.802;37.404;2024-02-21T05:51:58;100195.72;;;-0.74;94.84
24620;BME280;12763;55.802;37.404;2024-02-21T05:54:24;100198.53;;;-0.96;94.88
24620;BME280;12763;55.802;37.404;2024-02-21T05:56:49;100188.56;;;-1.16;97.12
24620;BME280;12763;55.802;37.404;2024-02-21T05:59:15;100189.34;;;-1.05;96.39
24620;BME280;12763;55.802;37.404;2024-02-21T06:01:41;100198.75;;;-0.88;96.12
24620;BME280;12763;55.802;37.404;2024-02-21T06:04:07;100199.50;;;-0.86;95.96
24620;BME280;12763;55.802;37.404;2024-02-21T06:06:33;100202.41;;;-0.78;95.84
24620;BME280;12763;55.802;37.404;2024-02-21T06:08:59;100195.47;;;-0.71;95.22
24620;BME280;12763;55.802;37.404;2024-02-21T06:11:27;100197.91;;;-0.68;94.73
24620;BME280;12763;55.802;37.404;2024-02-21T06:13:53;100196.06;;;-1.20;96.39
24620;BME280;12763;55.802;37.404;2024-02-21T06:16:19;100199.81;;;-1.00;97.61
24620;BME280;12763;55.802;37.404;2024-02-21T06:18:45;100200.44;;;-0.76;96.71
24620;BME280;12763;55.802;37.404;2024-02-21T06:21:11;100195.25;;;-0.79;95.52
24620;BME280;12763;55.802;37.404;2024-02-21T06:23:38;100196.00;;;-0.56;95.20
24620;BME280;12763;55.802;37.404;2024-02-21T06:26:04;100202.16;;;-0.75;95.15
24620;BME280;12763;55.802;37.404;2024-02-21T06:28:30;100202.97;;;-0.95;96.70
24620;BME280;12763;55.802;37.404;2024-02-21T06:30:56;100198.81;;;-0.99;97.06
24620;BME280;12763;55.802;37.404;2024-02-21T06:33:21;100197.50;;;-0.84;95.81
24620;BME280;12763;55.802;37.404;2024-02-21T06:35:48;100194.88;;;-0.54;95.36
24620;BME280;12763;55.802;37.404;2024-02-21T06:38:14;100192.97;;;-1.15;96.90
24620;BME280;12763;55.802;37.404;2024-02-21T06:40:41;100189.31;;;-0.73;96.65
24620;BME280;12763;55.802;37.404;2024-02-21T06:43:07;100192.09;;;-0.84;96.50
24620;BME280;12763;55.802;37.404;2024-02-21T06:45:33;100192.88;;;-0.52;95.73
24620;BME280;12763;55.802;37.404;2024-02-21T06:47:59;100186.94;;;-0.46;94.47
24620;BME280;12763;55.802;37.404;2024-02-21T06:50:24;100195.50;;;-0.50;94.52
24620;BME280;12763;55.802;37.404;2024-02-21T06:52:50;100181.13;;;-0.62;94.33
24620;BME280;12763;55.802;37.404;2024-02-21T06:55:16;100191.03;;;-0.31;94.49
24620;BME280;12763;55.802;37.404;2024-02-21T06:57:44;100193.69;;;-0.20;93.01
24620;BME280;12763;55.802;37.404;2024-02-21T07:00:10;100186.28;;;-0.08;92.00
24620;BME280;12763;55.802;37.404;2024-02-21T07:02:36;100179.84;;;0.14;91.72
24620;BME280;12763;55.802;37.404;2024-02-21T07:05:21;100175.88;;;0.37;90.71
24620;BME280;12763;55.802;37.404;2024-02-21T07:07:47;100174.84;;;0.19;90.17
24620;BME280;12763;55.802;37.404;2024-02-21T07:10:13;100170.06;;;0.41;89.35
24620;BME280;12763;55.802;37.404;2024-02-21T07:12:39;100176.69;;;0.18;90.30
24620;BME280;12763;55.802;37.404;2024-02-21T07:15:23;100168.19;;;0.42;89.48
24620;BME280;12763;55.802;37.404;2024-02-21T07:17:52;100172.44;;;-0.05;89.99
24620;BME280;12763;55.802;37.404;2024-02-21T07:20:19;100165.41;;;0.23;90.72
24620;BME280;12763;55.802;37.404;2024-02-21T07:22:44;100169.63;;;-0.04;90.35
24620;BME280;12763;55.802;37.404;2024-02-21T07:25:10;100173.03;;;-0.02;91.53
24620;BME280;12763;55.802;37.404;2024-02-21T07:27:36;100167.56;;;0.19;90.46
24620;BME280;12763;55.802;37.404;2024-02-21T07:30:03;100161.81;;;0.62;88.61
24620;BME280;12763;55.802;37.404;2024-02-21T07:32:29;100171.09;;;0.69;88.33
24620;BME280;12763;55.802;37.404;2024-02-21T07:34:55;100164.09;;;0.57;87.91
24620;BME280;12763;55.802;37.404;2024-02-21T07:37:21;100167.69;;;0.96;86.91
24620;BME280;12763;55.802;37.404;2024-02-21T07:39:47;100167.81;;;1.13;84.95
24620;BME280;12763;55.802;37.404;2024-02-21T07:42:13;100155.41;;;1.21;84.59
24620;BME280;12763;55.802;37.404;2024-02-21T07:44:39;100158.97;;;1.11;84.08
24620;BME280;12763;55.802;37.404;2024-02-21T07:47:05;100157.97;;;0.93;85.80
24620;BME280;12763;55.802;37.404;2024-02-21T07:49:32;100163.97;;;1.16;85.12
24620;BME280;12763;55.802;37.404;2024-02-21T07:52:00;100156.19;;;1.59;84.06
24620;BME280;12763;55.802;37.404;2024-02-21T07:54:26;100152.19;;;1.44;83.79
24620;BME280;12763;55.802;37.404;2024-02-21T07:56:52;100144.22;;;1.24;84.42
24620;BME280;12763;55.802;37.404;2024-02-21T07:59:18;100142.22;;;1.35;83.00
24620;BME280;12763;55.802;37.404;2024-02-21T08:01:44;100142.78;;;1.19;82.67
24620;BME280;12763;55.802;37.404;2024-02-21T08:04:10;100135.88;;;1.54;82.92
24620;BME280;12763;55.802;37.404;2024-02-21T08:06:36;100145.56;;;1.66;81.43
24620;BME280;12763;55.802;37.404;2024-02-21T08:09:02;100137.44;;;1.47;81.75
24620;BME280;12763;55.802;37.404;2024-02-21T08:11:28;100137.56;;;1.64;81.49
24620;BME280;12763;55.802;37.404;2024-02-21T08:13:54;100138.50;;;0.79;83.53
24620;BME280;12763;55.802;37.404;2024-02-21T08:16:20;100148.53;;;0.69;85.62
24620;BME280;12763;55.802;37.404;2024-02-21T08:18:46;100145.09;;;0.76;86.39
24620;BME280;12763;55.802;37.404;2024-02-21T08:21:12;100142.81;;;1.00;85.28
24620;BME280;12763;55.802;37.404;2024-02-21T08:23:56;100138.81;;;0.95;84.57
24620;BME280;12763;55.802;37.404;2024-02-21T08:26:22;100137.91;;;1.13;84.13
24620;BME280;12763;55.802;37.404;2024-02-21T08:28:48;100132.97;;;1.65;81.93
24620;BME280;12763;55.802;37.404;2024-02-21T08:31:20;100138.06;;;1.87;79.85
24620;BME280;12763;55.802;37.404;2024-02-21T08:33:46;100137.50;;;1.74;79.27
24620;BME280;12763;55.802;37.404;2024-02-21T08:36:19;100142.63;;;1.31;80.01
24620;BME280;12763;55.802;37.404;2024-02-21T08:38:45;100141.09;;;1.18;81.93
24620;BME280;12763;55.802;37.404;2024-02-21T08:41:11;100135.78;;;1.27;81.73
24620;BME280;12763;55.802;37.404;2024-02-21T08:43:38;100141.06;;;1.38;81.23
24620;BME280;12763;55.802;37.404;2024-02-21T08:46:05;100138.50;;;1.17;81.72
24620;BME280;12763;55.802;37.404;2024-02-21T08:48:30;100139.59;;;1.53;80.62
24620;BME280;12763;55.802;37.404;2024-02-21T08:50:56;100143.94;;;1.27;80.20
24620;BME280;12763;55.802;37.404;2024-02-21T08:53:22;100146.91;;;1.43;80.74
24620;BME280;12763;55.802;37.404;2024-02-21T08:55:48;100142.19;;;1.45;80.85
24620;BME280;12763;55.802;37.404;2024-02-21T08:58:14;100139.63;;;1.34;79.68
24620;BME280;12763;55.802;37.404;2024-02-21T09:00:40;100141.94;;;1.85;79.51
24620;BME280;12763;55.802;37.404;2024-02-21T09:03:06;100130.31;;;1.83;78.22
24620;BME280;12763;55.802;37.404;2024-02-21T09:05:32;100135.03;;;1.90;78.87
24620;BME280;12763;55.802;37.404;2024-02-21T09:08:00;100132.25;;;2.09;77.39
24620;BME280;12763;55.802;37.404;2024-02-21T09:10:26;100135.09;;;2.08;77.40
24620;BME280;12763;55.802;37.404;2024-02-21T09:12:52;100124.31;;;2.16;76.73
24620;BME280;12763;55.802;37.404;2024-02-21T09:15:17;100121.06;;;2.12;76.38
24620;BME280;12763;55.802;37.404;2024-02-21T09:17:43;100117.59;;;2.10;76.93
24620;BME280;12763;55.802;37.404;2024-02-21T09:20:09;100123.66;;;2.31;76.32
24620;BME280;12763;55.802;37.404;2024-02-21T09:22:37;100114.06;;;2.27;75.02
24620;BME280;12763;55.802;37.404;2024-02-21T09:25:05;100109.53;;;2.18;75.46
24620;BME280;12763;55.802;37.404;2024-02-21T09:27:32;100109.03;;;2.05;76.33
24620;BME280;12763;55.802;37.404;2024-02-21T09:29:58;100116.31;;;2.32;76.23
24620;BME280;12763;55.802;37.404;2024-02-21T09:32:25;100115.88;;;2.36;75.91
24620;BME280;12763;55.802;37.404;2024-02-21T09:34:51;100114.28;;;2.16;76.23
24620;BME280;12763;55.802;37.404;2024-02-21T09:37:16;100108.25;;;1.86;76.33
24620;BME280;12763;55.802;37.404;2024-02-21T09:39:42;100108.94;;;1.97;78.13
24620;BME280;12763;55.802;37.404;2024-02-21T09:42:11;100096.16;;;2.25;76.51
24620;BME280;12763;55.802;37.404;2024-02-21T09:44:37;100093.78;;;2.57;75.04
24620;BME280;12763;55.802;37.404;2024-02-21T09:47:44;100103.84;;;2.12;74.33
24620;BME280;12763;55.802;37.404;2024-02-21T09:50:15;100099.03;;;2.51;75.66
24620;BME280;12763;55.802;37.404;2024-02-21T09:52:44;100102.03;;;2.03;76.12
24620;BME280;12763;55.802;37.404;2024-02-21T09:57:56;100091.16;;;2.48;73.42
24620;BME280;12763;55.802;37.404;2024-02-21T10:00:23;100087.75;;;2.46;74.42
24620;BME280;12763;55.802;37.404;2024-02-21T10:02:49;100093.25;;;2.09;74.37
24620;BME280;12763;55.802;37.404;2024-02-21T10:08:01;100094.50;;;1.87;75.64
24620;BME280;12763;55.802;37.404;2024-02-21T10:10:27;100092.06;;;1.57;77.84
24620;BME280;12763;55.802;37.404;2024-02-21T10:12:55;100095.31;;;1.97;77.45
24620;BME280;12763;55.802;37.404;2024-02-21T10:15:24;100090.06;;;1.86;77.41
24620;BME280;12763;55.802;37.404;2024-02-21T10:18:01;100084.31;;;1.62;77.61
24620;BME280;12763;55.802;37.404;2024-02-21T10:20:29;100088.00;;;1.61;79.16
24620;BME280;12763;55.802;37.404;2024-02-21T10:23:05;100091.50;;;2.17;77.17
24620;BME280;12763;55.802;37.404;2024-02-21T10:25:35;100084.31;;;2.16;76.39
24620;BME280;12763;55.802;37.404;2024-02-21T10:28:04;100094.88;;;2.29;75.72
24620;BME280;12763;55.802;37.404;2024-02-21T10:30:30;100084.13;;;2.00;75.35
24620;BME280;12763;55.802;37.404;2024-02-21T10:32:56;100090.44;;;2.01;76.07
24620;BME280;12763;55.802;37.404;2024-02-21T10:35:27;100085.69;;;1.75;77.80
24620;BME280;12763;55.802;37.404;2024-02-21T10:37:57;100082.28;;;1.64;78.44
24620;BME280;12763;55.802;37.404;2024-02-21T10:40:25;100085.09;;;1.72;78.39
24620;BME280;12763;55.802;37.404;2024-02-21T10:42:57;100074.09;;;1.73;78.74
24620;BME280;12763;55.802;37.404;2024-02-21T10:45:33;100081.00;;;1.95;76.29
24620;BME280;12763;55.802;37.404;2024-02-21T10:48:10;100081.56;;;1.99;76.23
24620;BME280;12763;55.802;37.404;2024-02-21T10:51:01;100083.16;;;2.19;74.99
24620;BME280;12763;55.802;37.404;2024-02-21T10:56:34;100080.00;;;2.23;76.13
24620;BME280;12763;55.802;37.404;2024-02-21T10:59:03;100088.25;;;2.31;75.20
24620;BME280;12763;55.802;37.404;2024-02-21T11:01:30;100086.25;;;2.51;74.86
24620;BME280;12763;55.802;37.404;2024-02-21T11:04:11;100079.38;;;2.02;74.55
24620;BME280;12763;55.802;37.404;2024-02-21T11:06:38;100081.88;;;1.96;76.62
24620;BME280;12763;55.802;37.404;2024-02-21T11:09:30;100084.78;;;1.85;76.95
24620;BME280;12763;55.802;37.404;2024-02-21T11:12:04;100072.34;;;2.09;76.38
24620;BME280;12763;55.802;37.404;2024-02-21T11:14:30;100067.59;;;2.11;76.05
24620;BME280;12763;55.802;37.404;2024-02-21T11:17:18;100061.94;;;1.68;78.07
24620;BME280;12763;55.802;37.404;2024-02-21T11:19:44;100064.84;;;1.57;79.25
24620;BME280;12763;55.802;37.404;2024-02-21T11:22:18;100061.19;;;2.03;77.31
24620;BME280;12763;55.802;37.404;2024-02-21T11:24:45;100053.50;;;1.71;77.48
24620;BME280;12763;55.802;37.404;2024-02-21T11:27:15;100061.75;;;1.79;78.74
24620;BME280;12763;55.802;37.404;2024-02-21T11:29:48;100053.13;;;1.56;78.84
24620;BME280;12763;55.802;37.404;2024-02-21T11:32:18;100054.66;;;1.59;79.77
24620;BME280;12763;55.802;37.404;2024-02-21T11:37:36;100047.28;;;1.78;78.91
24620;BME280;12763;55.802;37.404;2024-02-21T11:40:06;100051.06;;;1.68;79.82
24620;BME280;12763;55.802;37.404;2024-02-21T11:42:36;100061.88;;;1.77;79.85
24620;BME280;12763;55.802;37.404;2024-02-21T11:45:02;100054.34;;;1.99;78.64
24620;BME280;12763;55.802;37.404;2024-02-21T11:47:32;100046.81;;;1.56;79.67
24620;BME280;12763;55.802;37.404;2024-02-21T11:49:58;100047.97;;;1.53;80.62
24620;BME280;12763;55.802;37.404;2024-02-21T11:52:43;100041.03;;;1.68;80.94
24620;BME280;12763;55.802;37.404;2024-02-21T11:55:09;100045.72;;;1.76;80.12
24620;BME280;12763;55.802;37.404;2024-02-21T11:57:35;100044.56;;;1.42;80.44
24620;BME280;12763;55.802;37.404;2024-02-21T12:00:17;100031.28;;;1.66;81.15
24620;BME280;12763;55.802;37.404;2024-02-21T12:02:44;100040.66;;;1.54;81.53
24620;BME280;12763;55.802;37.404;2024-02-21T12:05:11;100042.06;;;1.58;80.75
24620;BME280;12763;55.802;37.404;2024-02-21T12:07:37;100037.66;;;1.57;81.40
24620;BME280;12763;55.802;37.404;2024-02-21T12:10:10;100032.22;;;1.57;81.26
24620;BME280;12763;55.802;37.404;2024-02-21T12:12:39;100023.28;;;1.28;82.01
24620;BME280;12763;55.802;37.404;2024-02-21T12:15:06;100036.53;;;1.50;82.39
24620;BME280;12763;55.802;37.404;2024-02-21T12:17:34;100035.34;;;1.52;82.05
24620;BME280;12763;55.802;37.404;2024-02-21T12:20:03;100033.50;;;1.53;82.18
24620;BME280;12763;55.802;37.404;2024-02-21T12:22:38;100042.72;;;1.79;80.58
24620;BME280;12763;55.802;37.404;2024-02-21T12:25:15;100031.16;;;1.31;83.35
24620;BME280;12763;55.802;37.404;2024-02-21T12:27:41;100033.13;;;1.38;83.27
24620;BME280;12763;55.802;37.404;2024-02-21T12:30:07;100038.03;;;1.35;83.08
24620;BME280;12763;55.802;37.404;2024-02-21T12:32:37;100033.09;;;0.92;83.81
24620;BME280;12763;55.802;37.404;2024-02-21T12:35:03;100035.25;;;0.98;84.79
24620;BME280;12763;55.802;37.404;2024-02-21T12:37:30;100029.91;;;1.15;84.18
24620;BME280;12763;55.802;37.404;2024-02-21T12:39:55;100022.75;;;1.14;84.22
24620;BME280;12763;55.802;37.404;2024-02-21T12:42:21;100030.34;;;1.21;84.23
24620;BME280;12763;55.802;37.404;2024-02-21T12:44:49;100029.09;;;1.42;83.55
24620;BME280;12763;55.802;37.404;2024-02-21T12:47:15;100034.44;;;1.34;83.30
24620;BME280;12763;55.802;37.404;2024-02-21T12:49:41;100023.53;;;0.78;86.14
24620;BME280;12763;55.802;37.404;2024-02-21T12:52:07;100022.63;;;1.06;86.47
24620;BME280;12763;55.802;37.404;2024-02-21T12:54:33;100029.00;;;1.34;85.47
24620;BME280;12763;55.802;37.404;2024-02-21T12:57:00;100025.41;;;1.34;84.66
24620;BME280;12763;55.802;37.404;2024-02-21T12:59:29;100028.22;;;1.51;84.89
24620;BME280;12763;55.802;37.404;2024-02-21T13:01:55;100022.50;;;1.45;83.93
24620;BME280;12763;55.802;37.404;2024-02-21T13:04:21;100026.91;;;1.09;85.17